Time;durP1;ratioP1;P1;durP2;ratioP2;P2;SDS_P1;SDS_P2;PMS_P1;PMS_P2;Temp;Humidity;BMP_temperature;BMP_pressure;BME280_temperature;BME280_humidity;BME280_pressure;Samples;Min_cycle;Max_cycle;Signal;HPM_P1;HPM_P2
2023/05/13 00:01:06;;;;;;;7.65;5.00;;;12.30;99.90;;;;;;5032060;28;20041;-62
2023/05/13 00:03:32;;;;;;;5.95;4.65;;;12.30;99.90;;;;;;5050311;28;20105;-62
2023/05/13 00:05:58;;;;;;;9.18;5.20;;;12.30;99.90;;;;;;5032840;28;20049;-63
2023/05/13 00:08:23;;;;;;;7.38;5.05;;;12.20;99.90;;;;;;5050580;28;20057;-62
2023/05/13 00:10:49;;;;;;;5.78;5.00;;;12.20;99.90;;;;;;5047735;28;20048;-62
2023/05/13 00:13:15;;;;;;;7.30;5.40;;;12.20;99.90;;;;;;5049355;28;20045;-62
2023/05/13 00:15:40;;;;;;;8.68;5.28;;;12.10;99.90;;;;;;5048940;28;20048;-61
2023/05/13 00:18:06;;;;;;;5.53;5.03;;;12.10;99.90;;;;;;5048271;28;20040;-63
2023/05/13 00:20:32;;;;;;;7.25;5.25;;;12.10;99.90;;;;;;5048380;28;20115;-62
2023/05/13 00:22:57;;;;;;;6.18;5.15;;;12.00;99.90;;;;;;5047625;28;20040;-63
2023/05/13 00:25:23;;;;;;;8.35;5.30;;;12.00;99.90;;;;;;5048145;28;20450;-62
2023/05/13 00:27:49;;;;;;;8.95;5.88;;;11.90;99.90;;;;;;5049000;28;20040;-62
2023/05/13 00:30:14;;;;;;;5.93;5.28;;;11.90;99.90;;;;;;5047898;28;20419;-61
2023/05/13 00:32:40;;;;;;;7.70;5.20;;;11.80;99.90;;;;;;5048913;28;20398;-63
2023/05/13 00:35:06;;;;;;;6.90;5.03;;;11.80;99.90;;;;;;5032097;28;20041;-62
2023/05/13 00:37:31;;;;;;;6.95;5.13;;;11.80;99.90;;;;;;5048980;28;20064;-60
2023/05/13 00:39:57;;;;;;;9.30;5.22;;;11.80;99.90;;;;;;5048916;28;20033;-61
2023/05/13 00:42:23;;;;;;;5.70;5.20;;;11.80;99.90;;;;;;5048884;28;20094;-61
2023/05/13 00:44:48;;;;;;;9.13;5.90;;;11.80;99.90;;;;;;5047379;28;20045;-64
2023/05/13 00:47:15;;;;;;;6.18;5.57;;;11.80;99.90;;;;;;5049102;28;20047;-63
2023/05/13 00:49:41;;;;;;;7.28;5.38;;;11.80;99.90;;;;;;5048835;28;20033;-62
2023/05/13 00:52:07;;;;;;;6.35;5.60;;;11.70;99.90;;;;;;5047700;28;20033;-63
2023/05/13 00:54:32;;;;;;;7.15;5.63;;;11.70;99.90;;;;;;5047402;28;20044;-63
2023/05/13 00:56:58;;;;;;;7.40;6.00;;;11.70;99.90;;;;;;5051103;28;20041;-65
2023/05/13 00:59:26;;;;;;;6.25;5.57;;;11.60;99.90;;;;;;5048100;28;20037;-63
2023/05/13 01:02:16;;;;;;;9.00;6.03;;;11.60;99.90;;;;;;5048419;28;20025;-63
2023/05/13 01:05:35;;;;;;;9.23;6.05;;;11.60;99.90;;;;;;5048720;28;20032;-62
2023/05/13 01:08:09;;;;;;;9.35;5.70;;;11.60;99.90;;;;;;4972295;28;1082636;-61
2023/05/13 01:10:48;;;;;;;8.07;5.70;;;11.60;99.90;;;;;;5025905;28;20034;-61
2023/05/13 01:13:22;;;;;;;8.43;6.00;;;11.50;99.90;;;;;;5009974;28;20658;-63
2023/05/13 01:16:23;;;;;;;8.70;5.88;;;11.50;99.90;;;;;;5008248;28;20061;-61
2023/05/13 01:18:55;;;;;;;6.97;5.78;;;11.50;99.90;;;;;;4954991;28;20057;-66
2023/05/13 01:21:27;;;;;;;7.10;6.15;;;11.50;99.90;;;;;;4952575;28;20128;-63
2023/05/13 01:23:53;;;;;;;6.95;5.80;;;11.50;99.90;;;;;;4952356;28;20074;-59
2023/05/13 01:26:20;;;;;;;7.47;6.38;;;11.50;99.90;;;;;;4952273;28;20042;-62
2023/05/13 01:28:46;;;;;;;9.35;6.25;;;11.50;99.90;;;;;;4972170;28;20343;-60
2023/05/13 01:31:13;;;;;;;7.70;6.35;;;11.50;99.90;;;;;;4952498;28;20057;-62
2023/05/13 01:33:42;;;;;;;7.57;6.45;;;11.40;99.90;;;;;;4952436;28;20055;-62
2023/05/13 01:36:09;;;;;;;9.60;6.30;;;11.40;99.90;;;;;;4971764;28;20438;-62
2023/05/13 01:38:36;;;;;;;6.90;6.20;;;11.40;99.90;;;;;;4956023;28;20374;-63
2023/05/13 01:41:02;;;;;;;7.22;6.40;;;11.40;99.90;;;;;;4961039;28;20635;-64
2023/05/13 01:43:28;;;;;;;7.95;6.10;;;11.40;99.90;;;;;;4973264;28;20061;-62
2023/05/13 01:45:53;;;;;;;7.00;6.30;;;11.40;99.90;;;;;;4971854;28;20448;-62
2023/05/13 01:48:19;;;;;;;6.95;6.03;;;11.40;99.90;;;;;;4972471;28;20062;-63
2023/05/13 01:50:45;;;;;;;9.68;6.28;;;11.40;99.90;;;;;;4990704;28;20042;-63
2023/05/13 01:53:11;;;;;;;10.18;6.28;;;11.40;99.90;;;;;;4958097;28;20064;-64
2023/05/13 01:55:36;;;;;;;8.75;6.70;;;11.40;99.90;;;;;;5006600;28;20195;-63
2023/05/13 01:58:02;;;;;;;7.20;6.15;;;11.40;99.90;;;;;;5049710;28;20036;-62
2023/05/13 02:00:28;;;;;;;8.55;6.85;;;11.30;99.90;;;;;;5050688;28;20068;-62
2023/05/13 02:02:53;;;;;;;7.65;6.28;;;11.30;99.90;;;;;;5050816;28;20040;-61
2023/05/13 02:05:19;;;;;;;8.32;6.63;;;11.20;99.90;;;;;;5049594;28;20051;-61
2023/05/13 02:07:44;;;;;;;11.25;6.30;;;11.20;99.90;;;;;;5050280;28;20048;-63
2023/05/13 02:10:10;;;;;;;9.52;6.82;;;11.20;99.90;;;;;;5051696;28;20037;-62
2023/05/13 02:12:36;;;;;;;8.48;6.55;;;11.20;99.90;;;;;;5051306;28;20049;-63
2023/05/13 02:15:02;;;;;;;8.80;6.85;;;11.20;99.90;;;;;;5032839;28;20437;-63
2023/05/13 02:17:27;;;;;;;8.15;6.65;;;11.10;99.90;;;;;;5051583;28;20025;-64
2023/05/13 02:19:53;;;;;;;8.98;6.80;;;11.10;99.90;;;;;;5049668;28;20049;-63
2023/05/13 02:22:18;;;;;;;9.55;7.03;;;11.10;99.90;;;;;;5051560;28;20052;-61
2023/05/13 02:24:44;;;;;;;9.05;7.45;;;11.10;99.90;;;;;;5051112;28;20432;-61
2023/05/13 02:27:11;;;;;;;8.63;7.05;;;11.00;99.90;;;;;;5032791;28;20053;-62
2023/05/13 02:29:37;;;;;;;9.50;6.82;;;11.00;99.90;;;;;;5048316;28;20519;-61
2023/05/13 02:32:03;;;;;;;7.75;6.78;;;11.00;99.90;;;;;;5050347;28;20049;-61
2023/05/13 02:34:29;;;;;;;10.48;7.63;;;10.90;99.90;;;;;;5050192;28;20510;-63
2023/05/13 02:36:54;;;;;;;8.05;6.82;;;10.90;99.90;;;;;;5051753;28;20037;-62
2023/05/13 02:39:20;;;;;;;9.25;6.88;;;10.90;99.90;;;;;;5049797;28;20091;-62
2023/05/13 02:41:46;;;;;;;8.63;7.70;;;10.90;99.90;;;;;;5050901;28;20040;-62
2023/05/13 02:44:11;;;;;;;10.73;6.68;;;10.90;99.90;;;;;;5048960;28;20045;-61
2023/05/13 02:46:37;;;;;;;10.85;7.25;;;10.80;99.90;;;;;;5047862;28;20079;-61
2023/05/13 02:49:02;;;;;;;8.18;7.00;;;10.80;99.90;;;;;;5049796;28;20073;-62
2023/05/13 02:51:28;;;;;;;7.93;7.00;;;10.80;99.90;;;;;;5049140;28;20053;-60
2023/05/13 02:53:54;;;;;;;10.23;7.03;;;10.80;99.90;;;;;;5051256;28;20531;-63
2023/05/13 02:56:19;;;;;;;8.32;7.53;;;10.80;99.90;;;;;;5050744;28;20407;-61
2023/05/13 02:58:45;;;;;;;9.40;7.05;;;10.80;99.90;;;;;;5051038;28;20179;-63
2023/05/13 03:01:11;;;;;;;9.40;7.70;;;10.80;99.90;;;;;;5050242;28;20411;-61
2023/05/13 03:03:37;;;;;;;10.02;7.82;;;10.80;99.90;;;;;;5049884;28;20052;-63
2023/05/13 03:06:03;;;;;;;10.27;7.22;;;10.80;99.90;;;;;;5049983;28;20056;-61
2023/05/13 03:08:28;;;;;;;8.43;7.07;;;10.80;99.90;;;;;;5051064;28;20057;-62
2023/05/13 03:10:54;;;;;;;14.02;8.18;;;10.80;99.90;;;;;;5050959;28;20032;-61
2023/05/13 03:13:20;;;;;;;12.18;8.55;;;10.80;99.90;;;;;;5051305;28;20052;-63
2023/05/13 03:15:46;;;;;;;9.40;7.53;;;10.80;99.90;;;;;;5049369;28;20045;-63
2023/05/13 03:18:11;;;;;;;9.93;7.82;;;10.80;99.90;;;;;;5049975;28;20041;-61
2023/05/13 03:20:37;;;;;;;12.77;8.18;;;10.80;99.90;;;;;;5049616;28;20044;-62
2023/05/13 03:23:03;;;;;;;10.85;8.30;;;10.80;99.90;;;;;;5050660;28;20120;-62
2023/05/13 03:25:28;;;;;;;10.98;8.23;;;10.80;99.90;;;;;;5049936;28;20127;-62
2023/05/13 03:27:54;;;;;;;8.50;7.57;;;10.70;99.90;;;;;;5049744;28;20079;-61
2023/05/13 03:30:20;;;;;;;11.13;7.57;;;10.70;99.90;;;;;;5052022;28;20052;-61
2023/05/13 03:32:45;;;;;;;10.70;7.75;;;10.70;99.90;;;;;;5049412;28;20033;-65
2023/05/13 03:35:11;;;;;;;8.95;8.05;;;10.70;99.90;;;;;;5049230;28;20033;-63
2023/05/13 03:37:37;;;;;;;10.85;8.02;;;10.70;99.90;;;;;;5049731;28;20041;-62
2023/05/13 03:40:03;;;;;;;10.93;8.43;;;10.70;99.90;;;;;;5049387;28;20048;-62
2023/05/13 03:42:29;;;;;;;11.57;8.07;;;10.70;99.90;;;;;;5049873;28;20097;-63
2023/05/13 03:44:56;;;;;;;10.98;8.35;;;10.70;99.90;;;;;;5050466;28;20044;-60
2023/05/13 03:47:22;;;;;;;14.45;8.80;;;10.70;99.90;;;;;;5049158;28;20426;-63
2023/05/13 03:49:48;;;;;;;9.35;8.45;;;10.70;99.90;;;;;;5049932;28;20053;-62
2023/05/13 03:52:15;;;;;;;9.93;8.23;;;10.60;99.90;;;;;;5049595;28;20052;-62
2023/05/13 03:54:41;;;;;;;10.27;8.27;;;10.60;99.90;;;;;;5047210;28;20537;-60
2023/05/13 03:57:07;;;;;;;10.80;8.77;;;10.60;99.90;;;;;;5047129;28;20052;-63
2023/05/13 03:59:33;;;;;;;11.15;8.90;;;10.60;99.90;;;;;;5050574;28;20133;-61
2023/05/13 04:01:59;;;;;;;12.48;9.43;;;10.60;99.90;;;;;;5049112;28;20072;-63
2023/05/13 04:04:25;;;;;;;12.57;10.20;;;10.60;99.90;;;;;;5048269;28;20035;-61
2023/05/13 04:06:50;;;;;;;10.88;9.05;;;10.60;99.90;;;;;;5031598;28;20053;-62
2023/05/13 04:09:16;;;;;;;12.23;9.60;;;10.60;99.90;;;;;;5047279;28;20057;-61
2023/05/13 04:11:42;;;;;;;11.93;9.63;;;10.60;99.90;;;;;;5049105;28;20059;-62
2023/05/13 04:14:07;;;;;;;11.90;9.60;;;10.60;99.90;;;;;;5043719;28;20483;-63
2023/05/13 04:16:33;;;;;;;11.88;9.18;;;10.60;99.90;;;;;;5048803;28;20033;-65
2023/05/13 04:18:58;;;;;;;12.38;9.93;;;10.60;99.90;;;;;;5048732;28;20036;-60
2023/05/13 04:21:24;;;;;;;15.35;10.10;;;10.60;99.90;;;;;;5065854;28;20373;-62
2023/05/13 04:23:50;;;;;;;13.02;10.48;;;10.60;99.90;;;;;;5049757;28;20037;-61
2023/05/13 04:26:15;;;;;;;11.93;9.80;;;10.60;99.90;;;;;;5049896;28;20067;-62
2023/05/13 04:28:41;;;;;;;11.23;9.65;;;10.70;99.90;;;;;;5050452;28;20049;-61
2023/05/13 04:31:07;;;;;;;15.95;10.68;;;10.70;99.90;;;;;;5065399;28;20075;-60
2023/05/13 04:33:32;;;;;;;12.52;9.65;;;10.70;99.90;;;;;;5049714;28;20064;-62
2023/05/13 04:35:58;;;;;;;11.82;9.65;;;10.70;99.90;;;;;;5048594;28;20041;-61
2023/05/13 04:38:23;;;;;;;11.88;9.88;;;10.80;99.90;;;;;;5049812;28;20991;-64
2023/05/13 04:40:50;;;;;;;11.18;9.88;;;10.80;99.90;;;;;;5048522;28;20120;-63
2023/05/13 04:43:16;;;;;;;11.50;10.05;;;10.80;99.90;;;;;;5048457;28;20045;-61
2023/05/13 04:45:41;;;;;;;14.73;10.43;;;10.90;99.90;;;;;;5049723;28;20048;-63
2023/05/13 04:48:07;;;;;;;11.90;10.02;;;10.90;99.90;;;;;;5048545;28;20403;-64
2023/05/13 04:50:33;;;;;;;11.27;9.35;;;10.90;99.90;;;;;;5049619;28;20048;-63
2023/05/13 04:52:58;;;;;;;13.70;10.63;;;11.00;99.90;;;;;;5048710;28;20052;-62
2023/05/13 04:55:24;;;;;;;14.05;10.18;;;11.10;99.90;;;;;;5049465;28;20519;-62
2023/05/13 04:57:50;;;;;;;13.23;10.20;;;11.10;99.90;;;;;;5049916;28;20071;-62
2023/05/13 05:00:15;;;;;;;13.45;9.57;;;11.10;99.90;;;;;;5047542;28;20082;-63
2023/05/13 05:02:41;;;;;;;12.57;9.48;;;11.20;99.90;;;;;;5046795;28;20120;-60
2023/05/13 05:05:07;;;;;;;15.82;10.13;;;11.20;99.90;;;;;;5048442;28;20049;-61
2023/05/13 05:07:33;;;;;;;13.18;10.10;;;11.30;99.90;;;;;;5046026;28;20053;-61
2023/05/13 05:09:58;;;;;;;14.30;10.18;;;11.40;99.90;;;;;;5051428;28;20049;-61
2023/05/13 05:12:24;;;;;;;13.60;9.80;;;11.40;99.90;;;;;;5050070;28;20045;-62
2023/05/13 05:14:50;;;;;;;10.85;9.65;;;11.50;99.90;;;;;;5048565;28;20052;-61
2023/05/13 05:17:16;;;;;;;14.90;9.63;;;11.60;99.90;;;;;;5051060;28;20086;-62
2023/05/13 05:19:41;;;;;;;12.77;9.57;;;11.70;99.90;;;;;;5052296;28;20033;-60
2023/05/13 05:22:07;;;;;;;13.23;10.57;;;11.70;99.90;;;;;;5049606;28;20380;-63
2023/05/13 05:24:32;;;;;;;12.23;9.43;;;11.80;99.90;;;;;;5047282;28;20037;-62
2023/05/13 05:26:58;;;;;;;12.13;9.85;;;11.90;99.90;;;;;;5051426;28;20037;-62
2023/05/13 05:29:24;;;;;;;13.82;10.02;;;12.00;99.90;;;;;;5052203;28;20049;-62
2023/05/13 05:31:50;;;;;;;14.20;9.55;;;12.10;99.90;;;;;;5052993;28;20464;-63
2023/05/13 05:34:15;;;;;;;11.98;8.95;;;12.20;99.90;;;;;;5050452;28;20033;-63
2023/05/13 05:36:41;;;;;;;12.63;9.57;;;12.30;99.90;;;;;;5050861;28;20494;-62
2023/05/13 05:39:06;;;;;;;13.52;9.43;;;12.40;99.90;;;;;;5032614;28;20048;-62
2023/05/13 05:41:32;;;;;;;12.65;9.15;;;12.50;99.90;;;;;;5051453;28;20391;-62
2023/05/13 05:43:58;;;;;;;15.57;9.35;;;12.70;99.90;;;;;;5050280;28;20098;-63
2023/05/13 05:46:23;;;;;;;14.57;10.93;;;12.80;99.90;;;;;;5053401;28;20059;-62
2023/05/13 05:48:49;;;;;;;13.13;9.75;;;12.80;99.90;;;;;;5050387;28;20070;-62
2023/05/13 05:51:15;;;;;;;10.80;9.70;;;12.90;99.90;;;;;;5050282;28;20127;-63
2023/05/13 05:53:41;;;;;;;12.85;8.93;;;13.00;99.90;;;;;;5052277;28;20044;-62
2023/05/13 05:56:07;;;;;;;11.07;9.30;;;13.20;99.90;;;;;;5052122;28;20037;-62
2023/05/13 05:58:33;;;;;;;12.13;9.02;;;13.20;99.90;;;;;;5051822;28;20047;-62
2023/05/13 06:00:59;;;;;;;10.73;8.57;;;13.30;99.90;;;;;;5052231;28;20183;-62
2023/05/13 06:03:26;;;;;;;11.05;8.48;;;13.50;99.90;;;;;;5052416;28;20051;-62
2023/05/13 06:05:52;;;;;;;11.48;8.85;;;13.60;99.90;;;;;;5047769;28;20043;-61
2023/05/13 06:08:18;;;;;;;11.23;8.40;;;13.80;99.90;;;;;;5051665;28;20535;-63
2023/05/13 06:10:43;;;;;;;11.82;8.95;;;13.90;99.90;;;;;;5032752;28;20128;-61
2023/05/13 06:13:09;;;;;;;9.63;8.15;;;14.00;99.90;;;;;;5050736;28;20124;-63
2023/05/13 06:15:38;;;;;;;9.48;7.88;;;14.10;99.90;;;;;;5051150;28;20083;-61
2023/05/13 06:18:04;;;;;;;11.20;8.00;;;14.20;99.90;;;;;;5052590;28;20677;-63
2023/05/13 06:20:33;;;;;;;10.68;7.93;;;14.30;99.90;;;;;;5050397;28;20040;-63
2023/05/13 06:22:59;;;;;;;13.07;8.18;;;14.40;99.90;;;;;;5052250;28;20476;-62
2023/05/13 06:25:25;;;;;;;10.18;8.20;;;14.50;99.90;;;;;;5050294;28;20127;-63
2023/05/13 06:27:50;;;;;;;11.18;7.68;;;14.70;99.90;;;;;;5050888;28;20051;-62
2023/05/13 06:30:16;;;;;;;11.50;8.05;;;14.80;99.90;;;;;;5048966;28;20037;-64
2023/05/13 06:32:41;;;;;;;8.27;7.03;;;14.90;99.90;;;;;;5052069;28;20037;-62
2023/05/13 06:35:07;;;;;;;12.68;7.10;;;15.00;99.90;;;;;;5051786;28;20392;-61
2023/05/13 06:37:33;;;;;;;9.90;8.55;;;15.10;99.90;;;;;;5051121;28;20055;-61
2023/05/13 06:39:59;;;;;;;12.23;6.78;;;15.20;99.90;;;;;;5050760;28;20086;-64
2023/05/13 06:42:25;;;;;;;9.43;7.35;;;15.20;99.90;;;;;;5052029;28;20121;-62
2023/05/13 06:44:50;;;;;;;14.15;7.20;;;15.30;99.90;;;;;;5048499;28;20116;-63
2023/05/13 06:47:16;;;;;;;9.02;6.85;;;15.40;99.90;;;;;;5049689;28;20127;-62
2023/05/13 06:49:42;;;;;;;11.63;7.22;;;15.50;99.90;;;;;;5067583;28;20029;-60
2023/05/13 06:52:09;;;;;;;9.02;6.47;;;15.60;99.90;;;;;;5051266;28;20029;-63
2023/05/13 06:54:34;;;;;;;11.10;7.13;;;15.80;99.90;;;;;;5048676;28;20443;-63
2023/05/13 06:57:00;;;;;;;12.18;6.95;;;15.80;99.90;;;;;;5051979;28;20032;-63
2023/05/13 06:59:26;;;;;;;10.57;6.78;;;15.90;99.90;;;;;;5048438;28;20495;-62
2023/05/13 07:01:51;;;;;;;8.10;6.70;;;15.80;99.90;;;;;;5051378;28;20486;-61
2023/05/13 07:04:17;;;;;;;10.45;6.97;;;15.90;99.90;;;;;;5050144;28;20546;-62
2023/05/13 07:06:43;;;;;;;9.50;6.70;;;15.80;99.90;;;;;;5049544;28;20045;-64
2023/05/13 07:09:08;;;;;;;11.07;6.70;;;15.70;99.90;;;;;;5048214;28;20114;-64
2023/05/13 07:11:35;;;;;;;7.55;6.75;;;15.80;99.90;;;;;;5047585;28;20044;-62
2023/05/13 07:14:01;;;;;;;8.18;6.30;;;15.80;99.90;;;;;;5052825;28;20044;-63
2023/05/13 07:16:26;;;;;;;10.57;6.80;;;15.90;99.90;;;;;;5051444;28;20475;-62
2023/05/13 07:18:53;;;;;;;8.48;6.68;;;16.20;99.90;;;;;;5048932;28;20055;-63
2023/05/13 07:21:19;;;;;;;7.85;6.45;;;16.40;99.90;;;;;;5049050;28;20136;-62
2023/05/13 07:23:44;;;;;;;8.48;7.45;;;16.60;99.90;;;;;;5048240;28;20151;-62
2023/05/13 07:26:10;;;;;;;9.73;6.68;;;16.80;99.90;;;;;;5050176;28;20120;-62
2023/05/13 07:28:36;;;;;;;8.10;6.60;;;17.00;99.90;;;;;;5050663;28;20044;-62
2023/05/13 07:31:04;;;;;;;10.77;6.60;;;17.10;99.90;;;;;;5050051;28;20033;-62
2023/05/13 07:33:30;;;;;;;10.95;6.60;;;17.30;99.90;;;;;;5050607;28;20411;-62
2023/05/13 07:35:56;;;;;;;12.80;5.93;;;17.40;99.90;;;;;;5049703;28;20057;-63
2023/05/13 07:38:21;;;;;;;7.55;5.88;;;17.60;99.90;;;;;;5050730;28;20051;-62
2023/05/13 07:40:47;;;;;;;7.60;6.10;;;17.70;99.90;;;;;;5049358;28;20361;-62
2023/05/13 07:43:13;;;;;;;6.38;5.22;;;17.80;99.90;;;;;;5052979;28;20045;-64
2023/05/13 07:45:39;;;;;;;7.15;5.50;;;18.00;99.90;;;;;;5032049;28;20392;-60
2023/05/13 07:48:04;;;;;;;8.80;5.15;;;18.10;99.90;;;;;;5049448;28;20060;-63
2023/05/13 07:50:31;;;;;;;11.35;5.78;;;18.20;99.90;;;;;;5050377;28;20047;-64
2023/05/13 07:52:57;;;;;;;8.45;5.75;;;18.30;99.90;;;;;;5050891;28;20456;-62
2023/05/13 07:55:22;;;;;;;11.20;5.85;;;18.50;99.90;;;;;;5050171;28;20083;-64
2023/05/13 07:57:48;;;;;;;7.50;5.65;;;18.70;99.90;;;;;;5050103;28;20492;-64
2023/05/13 08:00:14;;;;;;;6.30;5.57;;;18.80;99.90;;;;;;5050358;28;20488;-61
2023/05/13 08:02:42;;;;;;;7.68;5.40;;;18.90;99.90;;;;;;5048865;28;20041;-62
2023/05/13 08:05:09;;;;;;;11.23;5.70;;;19.10;99.90;;;;;;5050725;28;20453;-62
2023/05/13 08:07:35;;;;;;;7.47;5.32;;;19.20;99.90;;;;;;5049906;28;20119;-62
2023/05/13 08:10:01;;;;;;;6.15;4.80;;;19.20;99.90;;;;;;5050113;28;20132;-62
2023/05/13 08:12:26;;;;;;;6.93;4.90;;;19.20;99.90;;;;;;5048693;28;20053;-61
2023/05/13 08:14:52;;;;;;;6.68;4.57;;;19.40;99.90;;;;;;5048775;28;20055;-64
2023/05/13 08:17:18;;;;;;;5.93;4.80;;;19.60;99.90;;;;;;5050200;28;20488;-62
2023/05/13 08:19:44;;;;;;;6.88;5.03;;;19.70;99.90;;;;;;5048654;28;20160;-62
2023/05/13 08:22:10;;;;;;;9.57;4.57;;;19.90;99.90;;;;;;5065528;28;20091;-63
2023/05/13 08:24:36;;;;;;;9.32;4.30;;;20.00;99.90;;;;;;5050218;28;20507;-63
2023/05/13 08:27:02;;;;;;;8.02;4.22;;;20.10;99.90;;;;;;5049783;28;20067;-63
2023/05/13 08:29:28;;;;;;;6.15;4.70;;;20.20;99.90;;;;;;5049580;28;20044;-62
2023/05/13 08:31:54;;;;;;;7.63;5.20;;;20.20;99.90;;;;;;5050177;28;20048;-63
2023/05/13 08:34:20;;;;;;;7.60;4.80;;;20.30;99.90;;;;;;5050055;28;20033;-61
2023/05/13 08:36:46;;;;;;;8.10;4.20;;;20.40;99.90;;;;;;5048250;28;20044;-63
2023/05/13 08:39:12;;;;;;;7.80;4.20;;;20.40;99.90;;;;;;5049582;28;20373;-63
2023/05/13 08:41:40;;;;;;;9.27;4.25;;;20.60;99.90;;;;;;5048551;28;20107;-64
2023/05/13 08:44:08;;;;;;;8.27;4.05;;;20.80;99.90;;;;;;5052322;28;20045;-63
2023/05/13 08:46:36;;;;;;;7.75;4.35;;;21.00;99.90;;;;;;5054092;28;20059;-61
2023/05/13 08:49:02;;;;;;;7.80;4.40;;;21.00;99.90;;;;;;5051940;28;20059;-63
2023/05/13 08:51:28;;;;;;;9.07;3.97;;;21.10;99.90;;;;;;5035290;28;20056;-63
2023/05/13 08:53:54;;;;;;;6.80;3.88;;;21.20;99.90;;;;;;5052451;28;20033;-63
2023/05/13 08:56:27;;;;;;;5.43;4.25;;;21.30;99.90;;;;;;5053346;28;20550;-62
2023/05/13 08:58:53;;;;;;;;;;;21.50;99.90;;;;;;5054030;28;20044;-63
2023/05/13 09:01:18;;;;;;;9.25;4.88;;;21.50;99.60;;;;;;5055043;28;19924;-63
2023/05/13 09:04:00;;;;;;;11.32;4.82;;;21.50;99.90;;;;;;5052562;28;20033;-64
2023/05/13 09:06:25;;;;;;;11.57;4.50;;;21.70;99.90;;;;;;5053614;28;20056;-61
2023/05/13 09:08:51;;;;;;;7.85;4.90;;;21.70;99.90;;;;;;5052244;28;20132;-61
2023/05/13 09:11:18;;;;;;;5.50;4.25;;;21.80;99.90;;;;;;5052351;28;20033;-64
2023/05/13 09:13:43;;;;;;;7.65;4.38;;;21.90;99.90;;;;;;5052155;28;20041;-62
2023/05/13 09:16:12;;;;;;;8.80;4.40;;;22.00;99.90;;;;;;5052890;28;20053;-61
2023/05/13 09:18:40;;;;;;;20.10;7.38;;;22.10;99.90;;;;;;5035226;28;20487;-62
2023/05/13 09:21:23;;;;;;;7.78;4.53;;;22.20;99.80;;;;;;5054603;28;20068;-61
2023/05/13 09:23:54;;;;;;;6.68;3.58;;;22.20;97.60;;;;;;5051190;28;20438;-63
2023/05/13 09:26:28;;;;;;;8.60;3.30;;;22.10;98.30;;;;;;5053339;28;20044;-62
2023/05/13 09:29:22;;;;;;;6.40;3.17;;;22.20;97.50;;;;;;5051241;28;20483;-62
2023/05/13 09:31:56;;;;;;;15.30;6.07;;;22.20;96.70;;;;;;5050972;28;20163;-61
2023/05/13 09:34:30;;;;;;;18.50;8.10;;;22.40;97.30;;;;;;5050523;28;20121;-61
2023/05/13 09:37:04;;;;;;;8.05;3.90;;;22.50;95.80;;;;;;5051876;28;20040;-63
2023/05/13 09:39:32;;;;;;;5.97;2.95;;;22.50;95.10;;;;;;5051272;28;20128;-61
2023/05/13 09:42:00;;;;;;;7.55;3.45;;;22.60;95.50;;;;;;5051781;28;20381;-61
2023/05/13 09:44:26;;;;;;;5.65;3.10;;;22.80;95.60;;;;;;5051446;28;20033;-62
2023/05/13 09:46:53;;;;;;;5.90;2.95;;;22.90;95.90;;;;;;5049742;28;20055;-63
2023/05/13 09:49:22;;;;;;;3.83;2.70;;;22.90;94.50;;;;;;5052877;28;20365;-62
2023/05/13 09:51:48;;;;;;;5.95;2.67;;;23.10;94.50;;;;;;5051182;28;20052;-61
2023/05/13 09:54:13;;;;;;;3.63;2.65;;;23.40;94.30;;;;;;5050161;28;20037;-62
2023/05/13 09:56:39;;;;;;;6.55;2.90;;;23.50;94.00;;;;;;5048710;28;20464;-63
2023/05/13 09:59:05;;;;;;;4.05;2.63;;;23.50;93.20;;;;;;5052731;28;20036;-63
2023/05/13 10:01:34;;;;;;;8.02;2.58;;;23.60;92.70;;;;;;5049760;28;20032;-63
2023/05/13 10:04:04;;;;;;;6.80;2.47;;;23.70;93.70;;;;;;5050702;28;20488;-64
2023/05/13 10:06:30;;;;;;;7.72;2.60;;;24.00;92.40;;;;;;5050416;28;20078;-62
2023/05/13 10:08:58;;;;;;;4.47;2.72;;;24.10;92.00;;;;;;5050701;28;20136;-62
2023/05/13 10:11:24;;;;;;;4.78;2.67;;;24.30;92.10;;;;;;5049775;28;20065;-63
2023/05/13 10:13:57;;;;;;;6.05;2.55;;;24.40;90.80;;;;;;5049492;28;20049;-64
2023/05/13 10:16:24;;;;;;;4.57;2.60;;;24.70;90.70;;;;;;5051869;28;20037;-64
2023/05/13 10:18:51;;;;;;;6.05;2.72;;;24.80;88.20;;;;;;5050105;28;20459;-60
2023/05/13 10:21:18;;;;;;;5.88;2.55;;;25.00;87.00;;;;;;5050866;28;20124;-66
2023/05/13 10:23:46;;;;;;;6.60;2.53;;;25.00;86.80;;;;;;5049047;28;20040;-61
2023/05/13 10:26:12;;;;;;;6.85;2.83;;;25.00;85.90;;;;;;5050219;28;20115;-64
2023/05/13 10:28:38;;;;;;;4.75;2.80;;;25.10;83.50;;;;;;5050942;28;20036;-64
2023/05/13 10:31:04;;;;;;;4.30;2.75;;;25.00;84.10;;;;;;5050847;28;20059;-62
2023/05/13 10:33:30;;;;;;;5.22;2.83;;;25.10;83.20;;;;;;5048748;28;20053;-63
2023/05/13 10:36:21;;;;;;;3.83;2.95;;;25.10;81.70;;;;;;5048803;28;20033;-63
2023/05/13 10:39:02;;;;;;;9.25;2.50;;;25.30;80.20;;;;;;5064569;28;20044;-63
2023/05/13 10:41:49;;;;;;;7.85;2.45;;;25.40;78.80;;;;;;5048572;28;20403;-61
2023/05/13 10:44:18;;;;;;;6.45;2.83;;;25.50;77.10;;;;;;5049366;28;20391;-62
2023/05/13 10:46:47;;;;;;;6.25;2.65;;;25.30;77.70;;;;;;5049582;28;20032;-64
2023/05/13 10:49:15;;;;;;;4.47;2.47;;;25.50;79.00;;;;;;5049753;28;20098;-64
2023/05/13 10:51:48;;;;;;;5.10;2.60;;;25.70;79.20;;;;;;5048243;28;20072;-61
2023/05/13 10:54:22;;;;;;;4.07;2.50;;;25.80;79.90;;;;;;5048634;28;20547;-62
2023/05/13 10:56:57;;;;;;;5.10;2.38;;;25.90;77.40;;;;;;5061188;28;20033;-63
2023/05/13 10:59:24;;;;;;;3.80;2.33;;;25.90;76.20;;;;;;5050444;28;20032;-63
2023/05/13 11:01:49;;;;;;;4.03;2.30;;;25.90;77.70;;;;;;5050193;28;20043;-63
2023/05/13 11:04:18;;;;;;;5.25;2.30;;;25.80;78.00;;;;;;5052295;28;20041;-63
2023/05/13 11:06:49;;;;;;;7.97;2.22;;;25.80;74.20;;;;;;5050606;28;20052;-64
2023/05/13 11:09:21;;;;;;;5.43;2.33;;;25.80;72.10;;;;;;5051149;28;20504;-62
2023/05/13 11:11:51;;;;;;;4.55;2.40;;;25.80;73.00;;;;;;5051049;28;20448;-65
2023/05/13 11:14:24;;;;;;;5.75;2.38;;;25.70;71.70;;;;;;5050181;28;20041;-64
2023/05/13 11:17:00;;;;;;;4.57;2.70;;;25.70;69.40;;;;;;5051718;28;20033;-63
2023/05/13 11:19:34;;;;;;;5.15;2.58;;;25.70;71.20;;;;;;5050976;28;20044;-61
2023/05/13 11:22:20;;;;;;;5.97;2.55;;;25.30;71.90;;;;;;5049514;28;20077;-62
2023/05/13 11:25:06;;;;;;;4.25;2.30;;;24.70;70.00;;;;;;5049603;28;20049;-64
2023/05/13 11:27:38;;;;;;;5.53;2.40;;;24.70;67.50;;;;;;5049845;28;20048;-61
2023/05/13 11:30:25;;;;;;;3.92;2.00;;;24.90;69.00;;;;;;5049712;28;20044;-62
2023/05/13 11:32:54;;;;;;;7.05;2.40;;;25.10;69.40;;;;;;5050823;28;20033;-63
2023/05/13 11:35:24;;;;;;;5.40;2.50;;;25.30;70.40;;;;;;5051868;28;20048;-62
2023/05/13 11:37:49;;;;;;;3.75;2.25;;;25.10;73.00;;;;;;5050751;28;20041;-62
2023/05/13 11:40:25;;;;;;;4.82;2.20;;;25.00;72.40;;;;;;5049322;28;20439;-61
2023/05/13 11:42:52;;;;;;;8.15;2.60;;;24.70;68.00;;;;;;5049189;28;20478;-61
2023/05/13 11:45:19;;;;;;;4.03;2.10;;;24.40;70.70;;;;;;5051501;28;20040;-63
2023/05/13 11:47:45;;;;;;;5.78;2.30;;;24.70;72.30;;;;;;5049331;28;20052;-61
2023/05/13 11:50:18;;;;;;;9.63;2.88;;;24.70;69.30;;;;;;5033742;28;20377;-64
2023/05/13 11:52:48;;;;;;;3.97;2.67;;;24.10;69.40;;;;;;5049251;28;20116;-62
2023/05/13 11:55:27;;;;;;;3.80;2.25;;;23.70;71.10;;;;;;5049209;28;20052;-62
2023/05/13 11:57:53;;;;;;;3.88;2.03;;;23.20;70.10;;;;;;5050533;28;20435;-62
2023/05/13 12:00:25;;;;;;;6.15;2.40;;;23.40;71.80;;;;;;5050434;28;20043;-65
2023/05/13 12:02:50;;;;;;;4.40;2.22;;;23.70;71.60;;;;;;5048784;28;20049;-62
2023/05/13 12:05:16;;;;;;;4.22;2.33;;;23.80;72.20;;;;;;5050124;28;20045;-62
2023/05/13 12:07:42;;;;;;;3.58;2.20;;;23.80;71.30;;;;;;5049183;28;20040;-62
2023/05/13 12:10:08;;;;;;;3.92;2.40;;;23.80;70.00;;;;;;5048859;28;20055;-63
2023/05/13 12:12:37;;;;;;;3.97;2.45;;;23.60;68.60;;;;;;5048969;28;20053;-62
2023/05/13 12:15:05;;;;;;;4.35;2.30;;;23.40;69.80;;;;;;5048892;28;20090;-62
2023/05/13 12:17:32;;;;;;;6.07;2.83;;;23.50;71.20;;;;;;5049011;28;20040;-62
2023/05/13 12:20:22;;;;;;;5.97;2.55;;;23.50;72.00;;;;;;5048778;28;20044;-63
2023/05/13 12:22:48;;;;;;;4.13;2.58;;;23.70;74.30;;;;;;5051027;28;20033;-62
2023/05/13 12:25:36;;;;;;;8.15;2.28;;;23.70;73.50;;;;;;5048673;28;20041;-64
2023/05/13 12:28:18;;;;;;;8.40;2.40;;;23.90;72.50;;;;;;5049979;28;20484;-63
2023/05/13 12:31:01;;;;;;;5.25;2.60;;;23.60;73.80;;;;;;5048959;28;20037;-61
2023/05/13 12:33:31;;;;;;;6.03;2.25;;;23.50;75.00;;;;;;5048700;28;20422;-61
2023/05/13 12:36:34;;;;;;;5.30;2.20;;;23.50;73.50;;;;;;5031934;28;20044;-64
2023/05/13 12:39:10;;;;;;;5.55;2.33;;;23.80;71.10;;;;;;5049922;28;20103;-62
2023/05/13 12:41:38;;;;;;;4.88;3.15;;;23.90;72.60;;;;;;5050301;28;20048;-63
2023/05/13 12:44:08;;;;;;;4.60;2.30;;;24.00;72.00;;;;;;5050672;28;20045;-61
2023/05/13 12:46:33;;;;;;;7.72;2.40;;;23.80;71.80;;;;;;5050063;28;20384;-63